sensor_id;sensor_type;location;lat;lon;timestamp;P1;durP1;ratioP1;P2;durP2;ratioP2
1054;SDS011;516;51.482;7.120;2023-04-06T00:04:33;24.03;;;21.33;;
1054;SDS011;516;51.482;7.120;2023-04-06T00:10:21;23.63;;;21.30;;
1054;SDS011;516;51.482;7.120;2023-04-06T00:16:09;26.20;;;21.50;;
1054;SDS011;516;51.482;7.120;2023-04-06T00:21:57;23.57;;;21.23;;
1054;SDS011;516;51.482;7.120;2023-04-06T00:34:29;22.60;;;20.27;;
1054;SDS011;516;51.482;7.120;2023-04-06T00:40:17;23.50;;;21.20;;
1054;SDS011;516;51.482;7.120;2023-04-06T00:46:05;22.80;;;20.60;;
1054;SDS011;516;51.482;7.120;2023-04-06T00:51:53;23.30;;;20.80;;
1054;SDS011;516;51.482;7.120;2023-04-06T00:57:40;22.93;;;20.80;;
1054;SDS011;516;51.482;7.120;2023-04-06T01:03:28;21.67;;;19.47;;
1054;SDS011;516;51.482;7.120;2023-04-06T01:09:16;23.23;;;20.63;;
1054;SDS011;516;51.482;7.120;2023-04-06T01:15:04;22.00;;;19.80;;
1054;SDS011;516;51.482;7.120;2023-04-06T01:20:53;21.77;;;19.47;;
1054;SDS011;516;51.482;7.120;2023-04-06T01:26:41;24.13;;;20.87;;
1054;SDS011;516;51.482;7.120;2023-04-06T01:32:29;25.43;;;20.00;;
1054;SDS011;516;51.482;7.120;2023-04-06T01:41:58;26.37;;;19.90;;
1054;SDS011;516;51.482;7.120;2023-04-06T01:47:46;24.43;;;18.90;;
1054;SDS011;516;51.482;7.120;2023-04-06T01:53:33;22.20;;;20.10;;
1054;SDS011;516;51.482;7.120;2023-04-06T01:59:20;23.23;;;20.90;;
1054;SDS011;516;51.482;7.120;2023-04-06T02:05:07;25.47;;;19.13;;
1054;SDS011;516;51.482;7.120;2023-04-06T02:10:55;23.53;;;19.27;;
1054;SDS011;516;51.482;7.120;2023-04-06T02:16:43;22.50;;;20.17;;
1054;SDS011;516;51.482;7.120;2023-04-06T02:22:30;23.10;;;20.70;;
1054;SDS011;516;51.482;7.120;2023-04-06T02:28:18;25.57;;;22.70;;
1054;SDS011;516;51.482;7.120;2023-04-06T02:34:24;22.23;;;18.57;;
1054;SDS011;516;51.482;7.120;2023-04-06T02:40:12;23.17;;;20.87;;
1054;SDS011;516;51.482;7.120;2023-04-06T02:46:00;22.93;;;20.83;;
1054;SDS011;516;51.482;7.120;2023-04-06T02:51:47;21.90;;;19.67;;
1054;SDS011;516;51.482;7.120;2023-04-06T02:57:34;22.90;;;19.80;;
1054;SDS011;516;51.482;7.120;2023-04-06T03:03:22;21.30;;;19.03;;
1054;SDS011;516;51.482;7.120;2023-04-06T03:09:09;22.00;;;19.60;;
1054;SDS011;516;51.482;7.120;2023-04-06T03:14:58;23.23;;;20.73;;
1054;SDS011;516;51.482;7.120;2023-04-06T03:20:46;22.90;;;20.70;;
1054;SDS011;516;51.482;7.120;2023-04-06T03:26:34;24.97;;;22.37;;
1054;SDS011;516;51.482;7.120;2023-04-06T03:35:56;21.80;;;19.53;;
1054;SDS011;516;51.482;7.120;2023-04-06T03:41:44;20.50;;;18.50;;
1054;SDS011;516;51.482;7.120;2023-04-06T03:47:32;25.47;;;19.10;;
1054;SDS011;516;51.482;7.120;2023-04-06T03:53:19;22.13;;;19.77;;
1054;SDS011;516;51.482;7.120;2023-04-06T03:59:07;23.37;;;19.87;;
1054;SDS011;516;51.482;7.120;2023-04-06T04:04:55;22.67;;;20.40;;
1054;SDS011;516;51.482;7.120;2023-04-06T04:10:43;22.60;;;20.30;;
1054;SDS011;516;51.482;7.120;2023-04-06T04:16:31;21.80;;;19.33;;
1054;SDS011;516;51.482;7.120;2023-04-06T04:22:19;25.17;;;20.30;;
1054;SDS011;516;51.482;7.120;2023-04-06T04:27:47;22.90;;;20.60;;
1054;SDS011;516;51.482;7.120;2023-04-06T04:33:35;22.00;;;19.80;;
1054;SDS011;516;51.482;7.120;2023-04-06T04:39:22;24.10;;;21.80;;
1054;SDS011;516;51.482;7.120;2023-04-06T04:45:10;28.20;;;22.73;;
1054;SDS011;516;51.482;7.120;2023-04-06T04:50:58;33.10;;;22.33;;
1054;SDS011;516;51.482;7.120;2023-04-06T04:56:46;35.53;;;25.03;;
1054;SDS011;516;51.482;7.120;2023-04-06T05:02:34;30.30;;;23.70;;
1054;SDS011;516;51.482;7.120;2023-04-06T05:08:22;35.70;;;24.23;;
1054;SDS011;516;51.482;7.120;2023-04-06T05:14:09;35.60;;;26.33;;
1054;SDS011;516;51.482;7.120;2023-04-06T05:19:57;30.70;;;22.20;;
1054;SDS011;516;51.482;7.120;2023-04-06T05:25:45;28.50;;;22.40;;
1054;SDS011;516;51.482;7.120;2023-04-06T05:38:18;24.63;;;20.77;;
1054;SDS011;516;51.482;7.120;2023-04-06T05:44:05;31.33;;;22.13;;
1054;SDS011;516;51.482;7.120;2023-04-06T05:49:53;23.47;;;21.07;;
1054;SDS011;516;51.482;7.120;2023-04-06T05:55:40;23.27;;;21.37;;
1054;SDS011;516;51.482;7.120;2023-04-06T06:01:28;21.27;;;19.03;;
1054;SDS011;516;51.482;7.120;2023-04-06T06:07:16;24.63;;;21.17;;
1054;SDS011;516;51.482;7.120;2023-04-06T06:13:04;21.23;;;19.53;;
1054;SDS011;516;51.482;7.120;2023-04-06T06:18:52;23.87;;;21.90;;
1054;SDS011;516;51.482;7.120;2023-04-06T06:24:40;20.43;;;18.93;;
1054;SDS011;516;51.482;7.120;2023-04-06T06:30:27;21.90;;;20.30;;
1054;SDS011;516;51.482;7.120;2023-04-06T06:39:46;24.37;;;22.57;;
1054;SDS011;516;51.482;7.120;2023-04-06T06:45:34;22.40;;;20.90;;
1054;SDS011;516;51.482;7.120;2023-04-06T06:51:22;22.63;;;21.03;;
1054;SDS011;516;51.482;7.120;2023-04-06T06:57:10;24.10;;;22.10;;
1054;SDS011;516;51.482;7.120;2023-04-06T07:02:58;23.50;;;21.80;;
1054;SDS011;516;51.482;7.120;2023-04-06T07:08:45;23.13;;;21.53;;
1054;SDS011;516;51.482;7.120;2023-04-06T07:14:33;23.87;;;22.03;;
1054;SDS011;516;51.482;7.120;2023-04-06T07:20:21;22.93;;;21.30;;
1054;SDS011;516;51.482;7.120;2023-04-06T07:26:09;22.90;;;20.93;;
1054;SDS011;516;51.482;7.120;2023-04-06T07:31:57;22.03;;;20.53;;
1054;SDS011;516;51.482;7.120;2023-04-06T07:37:38;22.77;;;21.27;;
1054;SDS011;516;51.482;7.120;2023-04-06T07:43:27;24.60;;;22.80;;
1054;SDS011;516;51.482;7.120;2023-04-06T07:49:14;22.37;;;21.00;;
1054;SDS011;516;51.482;7.120;2023-04-06T07:55:02;25.27;;;23.20;;
1054;SDS011;516;51.482;7.120;2023-04-06T08:00:50;22.47;;;20.43;;
1054;SDS011;516;51.482;7.120;2023-04-06T08:06:38;23.17;;;21.43;;
1054;SDS011;516;51.482;7.120;2023-04-06T08:12:25;25.37;;;23.20;;
1054;SDS011;516;51.482;7.120;2023-04-06T08:18:13;23.90;;;22.07;;
1054;SDS011;516;51.482;7.120;2023-04-06T08:24:01;23.73;;;22.03;;
1054;SDS011;516;51.482;7.120;2023-04-06T08:30:00;23.83;;;22.03;;
1054;SDS011;516;51.482;7.120;2023-04-06T08:45:33;25.70;;;23.40;;
1054;SDS011;516;51.482;7.120;2023-04-06T08:51:21;26.67;;;24.67;;
1054;SDS011;516;51.482;7.120;2023-04-06T08:57:12;24.20;;;22.47;;
1054;SDS011;516;51.482;7.120;2023-04-06T09:03:00;25.60;;;23.30;;
1054;SDS011;516;51.482;7.120;2023-04-06T09:08:24;26.23;;;24.10;;
1054;SDS011;516;51.482;7.120;2023-04-06T09:14:12;26.50;;;24.30;;
1054;SDS011;516;51.482;7.120;2023-04-06T09:20:00;27.50;;;25.10;;
1054;SDS011;516;51.482;7.120;2023-04-06T09:25:49;26.87;;;24.57;;
1054;SDS011;516;51.482;7.120;2023-04-06T09:31:38;26.53;;;24.50;;
1054;SDS011;516;51.482;7.120;2023-04-06T09:37:27;28.17;;;25.40;;
1054;SDS011;516;51.482;7.120;2023-04-06T09:42:56;27.33;;;25.00;;
1054;SDS011;516;51.482;7.120;2023-04-06T09:48:46;27.50;;;25.40;;
1054;SDS011;516;51.482;7.120;2023-04-06T09:54:34;28.30;;;25.77;;
1054;SDS011;516;51.482;7.120;2023-04-06T10:00:23;27.37;;;24.87;;
1054;SDS011;516;51.482;7.120;2023-04-06T10:06:14;28.43;;;25.87;;
1054;SDS011;516;51.482;7.120;2023-04-06T10:12:05;29.53;;;26.93;;
1054;SDS011;516;51.482;7.120;2023-04-06T10:17:53;26.57;;;24.27;;
1054;SDS011;516;51.482;7.120;2023-04-06T10:23:45;28.37;;;26.00;;
1054;SDS011;516;51.482;7.120;2023-04-06T10:30:04;28.03;;;25.70;;
1054;SDS011;516;51.482;7.120;2023-04-06T10:49:34;29.40;;;26.80;;
1054;SDS011;516;51.482;7.120;2023-04-06T10:55:21;30.93;;;28.20;;
1054;SDS011;516;51.482;7.120;2023-04-06T11:01:09;29.47;;;27.00;;
1054;SDS011;516;51.482;7.120;2023-04-06T11:06:57;31.83;;;29.03;;
1054;SDS011;516;51.482;7.120;2023-04-06T11:12:44;33.17;;;30.37;;
1054;SDS011;516;51.482;7.120;2023-04-06T11:18:45;33.23;;;30.53;;
1054;SDS011;516;51.482;7.120;2023-04-06T11:25:10;32.23;;;29.53;;
1054;SDS011;516;51.482;7.120;2023-04-06T11:31:00;32.87;;;30.07;;
1054;SDS011;516;51.482;7.120;2023-04-06T11:40:13;32.07;;;29.07;;
1054;SDS011;516;51.482;7.120;2023-04-06T11:46:01;30.60;;;27.47;;
1054;SDS011;516;51.482;7.120;2023-04-06T11:51:50;28.63;;;25.70;;
1054;SDS011;516;51.482;7.120;2023-04-06T11:57:34;27.90;;;25.33;;
1054;SDS011;516;51.482;7.120;2023-04-06T12:03:22;31.00;;;28.10;;
1054;SDS011;516;51.482;7.120;2023-04-06T12:09:10;30.33;;;27.20;;
1054;SDS011;516;51.482;7.120;2023-04-06T12:14:58;33.30;;;30.10;;
1054;SDS011;516;51.482;7.120;2023-04-06T12:20:46;28.37;;;25.63;;
1054;SDS011;516;51.482;7.120;2023-04-06T12:26:34;26.63;;;24.23;;
1054;SDS011;516;51.482;7.120;2023-04-06T12:32:22;25.00;;;22.90;;
1054;SDS011;516;51.482;7.120;2023-04-06T12:38:11;27.70;;;25.23;;
1054;SDS011;516;51.482;7.120;2023-04-06T12:43:58;27.20;;;24.67;;
1054;SDS011;516;51.482;7.120;2023-04-06T12:49:49;28.20;;;25.60;;
1054;SDS011;516;51.482;7.120;2023-04-06T12:55:37;25.37;;;22.97;;
1054;SDS011;516;51.482;7.120;2023-04-06T13:01:25;32.00;;;27.13;;
1054;SDS011;516;51.482;7.120;2023-04-06T13:07:14;26.57;;;24.23;;
1054;SDS011;516;51.482;7.120;2023-04-06T13:13:02;27.70;;;25.10;;
1054;SDS011;516;51.482;7.120;2023-04-06T13:18:50;27.50;;;25.10;;
1054;SDS011;516;51.482;7.120;2023-04-06T13:24:38;26.97;;;24.40;;
1054;SDS011;516;51.482;7.120;2023-04-06T13:30:25;24.80;;;22.70;;
1054;SDS011;516;51.482;7.120;2023-04-06T13:46:07;28.07;;;25.67;;
1054;SDS011;516;51.482;7.120;2023-04-06T13:51:55;28.50;;;25.83;;
1054;SDS011;516;51.482;7.120;2023-04-06T13:57:43;26.00;;;23.83;;
1054;SDS011;516;51.482;7.120;2023-04-06T14:03:31;22.57;;;20.77;;
1054;SDS011;516;51.482;7.120;2023-04-06T14:09:19;22.57;;;20.77;;
1054;SDS011;516;51.482;7.120;2023-04-06T14:15:08;23.83;;;21.57;;
1054;SDS011;516;51.482;7.120;2023-04-06T14:20:57;27.50;;;24.73;;
1054;SDS011;516;51.482;7.120;2023-04-06T14:26:45;26.33;;;24.03;;
1054;SDS011;516;51.482;7.120;2023-04-06T14:32:33;25.27;;;23.07;;
1054;SDS011;516;51.482;7.120;2023-04-06T14:38:12;22.90;;;20.87;;
1054;SDS011;516;51.482;7.120;2023-04-06T14:44:00;24.03;;;22.03;;
1054;SDS011;516;51.482;7.120;2023-04-06T14:49:51;25.50;;;23.10;;
1054;SDS011;516;51.482;7.120;2023-04-06T14:55:40;23.40;;;21.60;;
1054;SDS011;516;51.482;7.120;2023-04-06T15:01:33;24.27;;;22.23;;
1054;SDS011;516;51.482;7.120;2023-04-06T15:07:22;22.50;;;20.60;;
1054;SDS011;516;51.482;7.120;2023-04-06T15:13:10;23.43;;;21.50;;
1054;SDS011;516;51.482;7.120;2023-04-06T15:18:58;23.80;;;22.10;;
1054;SDS011;516;51.482;7.120;2023-04-06T15:24:47;21.80;;;20.30;;
1054;SDS011;516;51.482;7.120;2023-04-06T15:30:35;24.27;;;22.27;;
1054;SDS011;516;51.482;7.120;2023-04-06T15:46:04;23.40;;;21.57;;
1054;SDS011;516;51.482;7.120;2023-04-06T15:51:52;24.20;;;22.17;;
1054;SDS011;516;51.482;7.120;2023-04-06T15:57:39;21.40;;;19.73;;
1054;SDS011;516;51.482;7.120;2023-04-06T16:03:28;19.33;;;17.83;;
1054;SDS011;516;51.482;7.120;2023-04-06T16:09:15;21.80;;;19.63;;
1054;SDS011;516;51.482;7.120;2023-04-06T16:15:03;16.97;;;15.57;;
1054;SDS011;516;51.482;7.120;2023-04-06T16:20:51;20.13;;;15.77;;
1054;SDS011;516;51.482;7.120;2023-04-06T16:26:40;15.07;;;13.70;;
1054;SDS011;516;51.482;7.120;2023-04-06T16:32:27;13.83;;;12.30;;
1054;SDS011;516;51.482;7.120;2023-04-06T16:38:13;12.80;;;11.50;;
1054;SDS011;516;51.482;7.120;2023-04-06T16:44:01;13.63;;;11.50;;
1054;SDS011;516;51.482;7.120;2023-04-06T16:49:49;15.73;;;13.30;;
1054;SDS011;516;51.482;7.120;2023-04-06T16:55:38;10.20;;;9.30;;
1054;SDS011;516;51.482;7.120;2023-04-06T17:01:27;9.80;;;8.80;;
1054;SDS011;516;51.482;7.120;2023-04-06T17:07:16;8.97;;;8.17;;
1054;SDS011;516;51.482;7.120;2023-04-06T17:13:03;10.03;;;9.23;;
1054;SDS011;516;51.482;7.120;2023-04-06T17:18:52;10.13;;;9.13;;
1054;SDS011;516;51.482;7.120;2023-04-06T17:24:40;11.83;;;8.80;;
1054;SDS011;516;51.482;7.120;2023-04-06T17:30:27;8.83;;;7.93;;
1054;SDS011;516;51.482;7.120;2023-04-06T17:46:05;8.53;;;7.50;;
1054;SDS011;516;51.482;7.120;2023-04-06T17:51:53;9.33;;;8.10;;
1054;SDS011;516;51.482;7.120;2023-04-06T17:57:41;9.40;;;7.50;;
1054;SDS011;516;51.482;7.120;2023-04-06T18:03:29;8.00;;;7.20;;
1054;SDS011;516;51.482;7.120;2023-04-06T18:09:17;9.50;;;8.07;;
1054;SDS011;516;51.482;7.120;2023-04-06T18:15:05;10.90;;;8.30;;
1054;SDS011;516;51.482;7.120;2023-04-06T18:20:54;8.27;;;6.93;;
1054;SDS011;516;51.482;7.120;2023-04-06T18:26:42;8.70;;;7.83;;
1054;SDS011;516;51.482;7.120;2023-04-06T18:32:30;10.90;;;7.43;;
1054;SDS011;516;51.482;7.120;2023-04-06T18:48:32;10.87;;;9.73;;
1054;SDS011;516;51.482;7.120;2023-04-06T18:54:20;10.80;;;8.83;;
1054;SDS011;516;51.482;7.120;2023-04-06T19:00:07;10.63;;;9.10;;
1054;SDS011;516;51.482;7.120;2023-04-06T19:05:55;11.13;;;8.80;;
1054;SDS011;516;51.482;7.120;2023-04-06T19:11:43;11.23;;;7.90;;
1054;SDS011;516;51.482;7.120;2023-04-06T19:17:30;10.93;;;8.70;;
1054;SDS011;516;51.482;7.120;2023-04-06T19:23:18;16.03;;;11.10;;
1054;SDS011;516;51.482;7.120;2023-04-06T19:29:06;14.67;;;10.80;;
1054;SDS011;516;51.482;7.120;2023-04-06T19:34:54;12.97;;;11.60;;
1054;SDS011;516;51.482;7.120;2023-04-06T19:40:42;14.83;;;11.00;;
1054;SDS011;516;51.482;7.120;2023-04-06T19:49:51;16.03;;;10.90;;
1054;SDS011;516;51.482;7.120;2023-04-06T19:55:39;12.30;;;11.00;;
1054;SDS011;516;51.482;7.120;2023-04-06T20:01:27;13.07;;;11.23;;
1054;SDS011;516;51.482;7.120;2023-04-06T20:07:15;12.80;;;10.87;;
1054;SDS011;516;51.482;7.120;2023-04-06T20:13:02;12.20;;;8.93;;
1054;SDS011;516;51.482;7.120;2023-04-06T20:18:50;12.67;;;11.37;;
1054;SDS011;516;51.482;7.120;2023-04-06T20:24:38;13.60;;;10.40;;
1054;SDS011;516;51.482;7.120;2023-04-06T20:30:26;14.20;;;9.80;;
1054;SDS011;516;51.482;7.120;2023-04-06T20:36:14;9.80;;;8.80;;
1054;SDS011;516;51.482;7.120;2023-04-06T20:42:00;13.17;;;8.77;;
1054;SDS011;516;51.482;7.120;2023-04-06T20:47:50;10.70;;;9.60;;
1054;SDS011;516;51.482;7.120;2023-04-06T20:53:39;10.20;;;8.57;;
1054;SDS011;516;51.482;7.120;2023-04-06T20:59:27;11.00;;;9.07;;
1054;SDS011;516;51.482;7.120;2023-04-06T21:05:15;9.93;;;8.93;;
1054;SDS011;516;51.482;7.120;2023-04-06T21:11:02;8.40;;;7.43;;
1054;SDS011;516;51.482;7.120;2023-04-06T21:16:32;11.13;;;8.47;;
1054;SDS011;516;51.482;7.120;2023-04-06T21:22:19;9.53;;;7.93;;
1054;SDS011;516;51.482;7.120;2023-04-06T21:28:07;9.77;;;8.77;;
1054;SDS011;516;51.482;7.120;2023-04-06T21:33:55;8.93;;;8.03;;
1054;SDS011;516;51.482;7.120;2023-04-06T21:49:48;9.80;;;8.73;;
1054;SDS011;516;51.482;7.120;2023-04-06T21:55:45;11.80;;;9.97;;
1054;SDS011;516;51.482;7.120;2023-04-06T22:01:33;13.27;;;10.70;;
1054;SDS011;516;51.482;7.120;2023-04-06T22:07:21;11.27;;;10.00;;
1054;SDS011;516;51.482;7.120;2023-04-06T22:13:08;15.50;;;11.73;;
1054;SDS011;516;51.482;7.120;2023-04-06T22:18:58;17.77;;;13.00;;
1054;SDS011;516;51.482;7.120;2023-04-06T22:24:45;13.47;;;12.07;;
1054;SDS011;516;51.482;7.120;2023-04-06T22:30:33;14.60;;;12.90;;
1054;SDS011;516;51.482;7.120;2023-04-06T22:36:21;13.87;;;12.40;;
1054;SDS011;516;51.482;7.120;2023-04-06T22:41:59;15.97;;;12.40;;
1054;SDS011;516;51.482;7.120;2023-04-06T22:47:46;18.47;;;13.40;;
1054;SDS011;516;51.482;7.120;2023-04-06T22:53:34;20.80;;;14.63;;
1054;SDS011;516;51.482;7.120;2023-04-06T22:59:22;16.60;;;14.90;;
1054;SDS011;516;51.482;7.120;2023-04-06T23:05:10;18.80;;;15.50;;
1054;SDS011;516;51.482;7.120;2023-04-06T23:10:57;19.40;;;14.40;;
1054;SDS011;516;51.482;7.120;2023-04-06T23:16:45;19.23;;;14.77;;
1054;SDS011;516;51.482;7.120;2023-04-06T23:22:33;20.23;;;17.10;;
1054;SDS011;516;51.482;7.120;2023-04-06T23:28:20;18.10;;;14.90;;
1054;SDS011;516;51.482;7.120;2023-04-06T23:34:08;19.30;;;16.57;;
1054;SDS011;516;51.482;7.120;2023-04-06T23:49:53;18.97;;;16.23;;
1054;SDS011;516;51.482;7.120;2023-04-06T23:55:42;16.57;;;14.83;;
